Southwest Oregon Regional Airport North Bend US
ICAO: KOTH
IATA: OTH
Category: Medium
Scheduled Services: Yes

Elevation: 17 ft
TransAlt. 18000 ft.

Airport Communications:
AWOS 3:135.075
SEATTLE CNTR:121.4
AIR:34.5
MC MINNVILLE RDO:122.4
UNICOM:122.7

KOTH Zoom In..

If you have problems with the map follow the link
https://www.worldairports.se/pages/airport.php?
ICAO=KOTH

Runways:

(A) RW 04 length 5980 ft width 150 ft
ILS 108.50 / hdg 43

(B) RW 13 length 4470 ft width 150 ft
---- / hdg 132

(C) RW 22 length 5980 ft width 150 ft
---- / hdg 223

(D) RW 31 length 4470 ft width 150 ft
---- / hdg 312

Location; KOTH
Day. 11 / Time. 14.33 Zulu
* Altimeter: 30.10
* Temperature: 08° c. 46.4°f.
* Wind from: 180° Speed 05 kn.
Dewpoint: 08° c.
Visibility: 10 Statute Miles.
Clouds: Scattered 1500 ft.
Clouds: Broken 2200 ft.
Clouds: Broken 2700 ft.

KOTH 111433Z AUTO 18005KT 10SM SCT015 BKN022 BKN027 08/08 A3010 RMK AO2


Wind From 180°
Speed 05 kn.

 
 
jpsmedia worldairports.se 2019   terms of use